createdAt,value
2019-02-07T00:02:01.385Z,100143.75
2019-02-07T00:04:32.473Z,100143.20
2019-02-07T00:07:03.554Z,100149.05
2019-02-07T00:09:35.129Z,100150.23
2019-02-07T00:12:06.227Z,100147.61
2019-02-07T00:14:39.722Z,100149.06
2019-02-07T00:17:09.594Z,100148.41
2019-02-07T00:19:40.957Z,100146.81
2019-02-07T00:22:12.340Z,100144.02
2019-02-07T00:24:43.668Z,100146.75
2019-02-07T00:27:14.755Z,100147.34
2019-02-07T00:29:46.496Z,100146.34
2019-02-07T00:32:17.337Z,100140.20
2019-02-07T00:34:48.543Z,100131.27
2019-02-07T00:37:19.548Z,100133.00
2019-02-07T00:39:50.632Z,100125.48
2019-02-07T00:42:21.400Z,100130.28
2019-02-07T00:44:53.627Z,100129.33
2019-02-07T00:47:24.657Z,100120.96
2019-02-07T00:49:55.680Z,100118.38
2019-02-07T00:52:26.593Z,100113.94
2019-02-07T00:54:57.449Z,100108.67
2019-02-07T00:57:28.541Z,100102.26
2019-02-07T00:59:59.688Z,100101.76
2019-02-07T01:02:30.517Z,100104.20
2019-02-07T01:05:02.009Z,100100.77
2019-02-07T01:07:32.929Z,100102.70
2019-02-07T01:10:05.253Z,100092.05
2019-02-07T01:12:36.801Z,100088.40
2019-02-07T01:15:09.220Z,100087.63
2019-02-07T01:17:40.228Z,100085.75
2019-02-07T01:20:12.260Z,100085.19
2019-02-07T01:22:43.324Z,100087.55
2019-02-07T01:25:17.607Z,100081.16
2019-02-07T01:27:48.530Z,100071.78
2019-02-07T01:30:20.922Z,100077.23
2019-02-07T01:32:52.224Z,100064.14
2019-02-07T01:35:23.122Z,100060.61
2019-02-07T01:37:57.241Z,100058.23
2019-02-07T01:40:28.578Z,100058.36
2019-02-07T01:42:59.338Z,100052.91
2019-02-07T01:45:30.457Z,100056.67
2019-02-07T01:48:01.803Z,100055.04
2019-02-07T01:50:33.519Z,100046.36
2019-02-07T01:53:04.363Z,100051.64
2019-02-07T01:55:35.462Z,100049.12
2019-02-07T01:58:06.315Z,100040.97
2019-02-07T02:00:37.239Z,100041.08
2019-02-07T02:03:08.069Z,100031.27
2019-02-07T02:05:38.949Z,100027.91
2019-02-07T02:08:09.865Z,100026.62
2019-02-07T02:10:40.715Z,100029.17
2019-02-07T02:13:11.494Z,100020.37
2019-02-07T02:15:42.706Z,100020.94
2019-02-07T02:18:13.477Z,100025.91
2019-02-07T02:20:44.627Z,100015.81
2019-02-07T02:23:15.392Z,100017.79
2019-02-07T02:25:46.393Z,100019.33
2019-02-07T02:28:17.235Z,100024.39
2019-02-07T02:30:48.373Z,100019.56
2019-02-07T02:33:19.736Z,100014.07
2019-02-07T02:35:50.785Z,100007.70
2019-02-07T02:38:21.820Z,99996.84
2019-02-07T02:40:52.716Z,99991.19
2019-02-07T02:43:25.753Z,99987.95
2019-02-07T02:45:56.525Z,99992.10
2019-02-07T02:48:27.432Z,99994.57
2019-02-07T02:50:58.376Z,99988.22
2019-02-07T02:53:29.135Z,99975.90
2019-02-07T02:56:02.892Z,99967.11
2019-02-07T02:58:33.805Z,99958.92
2019-02-07T03:01:27.105Z,99950.48
2019-02-07T03:04:25.846Z,99946.24
2019-02-07T03:07:27.255Z,99947.37
2019-02-07T03:10:32.175Z,99928.36
2019-02-07T03:13:15.624Z,99939.51
2019-02-07T03:16:02.935Z,99933.17
2019-02-07T03:18:48.233Z,99935.89
2019-02-07T03:21:37.700Z,99932.59
2019-02-07T03:24:40.018Z,99928.20
2019-02-07T03:27:28.902Z,99924.09
2019-02-07T03:30:22.063Z,99913.84
2019-02-07T03:33:11.109Z,99917.42
2019-02-07T03:36:07.580Z,99905.10
2019-02-07T03:39:03.841Z,99909.57
2019-02-07T03:41:54.507Z,99905.16
2019-02-07T03:44:43.033Z,99899.44
2019-02-07T03:47:27.545Z,99891.44
2019-02-07T03:50:35.881Z,99896.13
2019-02-07T03:53:24.170Z,99899.73
2019-02-07T03:56:12.528Z,99900.48
2019-02-07T03:59:14.865Z,99896.65
2019-02-07T04:02:16.821Z,99907.31
2019-02-07T04:05:16.014Z,99888.46
2019-02-07T04:08:04.445Z,99868.39
2019-02-07T04:11:00.222Z,99878.74
2019-02-07T04:14:08.629Z,99892.72
2019-02-07T04:17:07.300Z,99903.03
2019-02-07T04:20:06.574Z,99907.16
2019-02-07T04:22:57.748Z,99898.17
2019-02-07T04:25:46.510Z,99869.10
2019-02-07T04:28:36.354Z,99872.64
2019-02-07T04:31:23.160Z,99866.41
2019-02-07T04:34:12.568Z,99866.05
2019-02-07T04:37:01.122Z,99854.34
2019-02-07T04:40:03.198Z,99855.63
2019-02-07T04:42:40.964Z,99852.80
2019-02-07T04:45:39.977Z,99860.55
2019-02-07T04:48:47.674Z,99858.81
2019-02-07T04:51:46.575Z,99864.69
2019-02-07T04:54:54.632Z,99856.03
2019-02-07T04:57:42.110Z,99839.67
2019-02-07T05:00:48.800Z,99824.56
2019-02-07T05:03:44.295Z,99817.20
2019-02-07T05:06:52.044Z,99812.15
2019-02-07T05:09:41.806Z,99817.27
2019-02-07T05:12:30.714Z,99845.62
2019-02-07T05:15:38.684Z,99866.06
2019-02-07T05:18:26.638Z,99860.53
2019-02-07T05:21:08.621Z,99862.81
2019-02-07T05:23:56.862Z,99853.01
2019-02-07T05:26:45.676Z,99848.94
2019-02-07T05:29:51.728Z,99862.22
2019-02-07T05:32:56.881Z,99859.34
2019-02-07T05:35:45.093Z,99853.94
2019-02-07T05:38:37.639Z,99861.91
2019-02-07T05:41:16.190Z,99859.06
2019-02-07T05:44:10.019Z,99839.14
2019-02-07T05:47:17.595Z,99822.73
2019-02-07T05:50:10.128Z,99815.14
2019-02-07T05:53:09.218Z,99800.43
2019-02-07T05:55:57.689Z,99812.20
2019-02-07T05:58:53.362Z,99819.71
2019-02-07T06:01:41.895Z,99807.72
2019-02-07T06:04:25.387Z,99798.25
2019-02-07T06:07:04.020Z,99792.08
2019-02-07T06:09:49.078Z,99789.30
2019-02-07T06:12:38.677Z,99793.33
2019-02-07T06:15:34.435Z,99797.52
2019-02-07T06:18:17.210Z,99803.87
2019-02-07T06:20:56.193Z,99792.09
2019-02-07T06:23:49.363Z,99798.53
2019-02-07T06:26:31.371Z,99801.05
2019-02-07T06:29:20.121Z,99800.27
2019-02-07T06:32:03.303Z,99805.16
2019-02-07T06:34:59.857Z,99798.84
2019-02-07T06:37:44.033Z,99794.58
2019-02-07T06:40:29.044Z,99795.66
2019-02-07T06:43:18.904Z,99791.81
2019-02-07T06:46:06.430Z,99792.84
2019-02-07T06:48:56.287Z,99792.05
2019-02-07T06:51:59.017Z,99802.23
2019-02-07T06:54:49.183Z,99800.55
2019-02-07T06:57:39.058Z,99795.26
2019-02-07T07:00:37.181Z,99793.19
2019-02-07T07:03:17.931Z,99787.56
2019-02-07T07:06:07.476Z,99784.61
2019-02-07T07:08:55.074Z,99770.48
2019-02-07T07:11:54.022Z,99771.02
2019-02-07T07:14:44.134Z,99766.43
2019-02-07T07:17:28.648Z,99765.93
2019-02-07T07:20:17.528Z,99772.55
2019-02-07T07:23:10.554Z,99761.91
2019-02-07T07:25:55.360Z,99759.93
2019-02-07T07:28:51.315Z,99749.66
2019-02-07T07:31:44.383Z,99756.70
2019-02-07T07:34:40.116Z,99744.73
2019-02-07T07:37:29.956Z,99738.09
2019-02-07T07:40:32.159Z,99736.05
2019-02-07T07:43:27.104Z,99714.98
2019-02-07T07:46:16.071Z,99719.37
2019-02-07T07:49:10.584Z,99735.48
2019-02-07T07:52:03.512Z,99732.79
2019-02-07T07:54:52.098Z,99734.75
2019-02-07T07:57:40.101Z,99737.84
2019-02-07T08:00:30.745Z,99734.70
2019-02-07T08:03:33.270Z,99738.57
2019-02-07T08:06:22.624Z,99737.41
2019-02-07T08:09:18.664Z,99747.65
2019-02-07T08:12:11.500Z,99746.02
2019-02-07T08:15:01.792Z,99728.99
2019-02-07T08:17:51.240Z,99748.42
2019-02-07T08:20:41.108Z,99728.09
2019-02-07T08:23:28.666Z,99734.89
2019-02-07T08:26:16.912Z,99733.61
2019-02-07T08:28:58.709Z,99734.52
2019-02-07T08:31:57.581Z,99749.78
2019-02-07T08:34:52.091Z,99739.58
2019-02-07T08:37:40.680Z,99731.88
2019-02-07T08:40:32.808Z,99741.03
2019-02-07T08:43:21.445Z,99739.12
2019-02-07T08:46:11.479Z,99733.77
2019-02-07T08:49:07.610Z,99727.55
2019-02-07T08:52:06.295Z,99718.41
2019-02-07T08:54:54.537Z,99709.05
2019-02-07T08:57:32.518Z,99727.48
2019-02-07T09:00:21.005Z,99728.63
2019-02-07T09:03:22.738Z,99730.34
2019-02-07T09:06:24.511Z,99710.77
2019-02-07T09:09:12.975Z,99715.69
2019-02-07T09:12:18.391Z,99698.05
2019-02-07T09:15:11.586Z,99709.08
2019-02-07T09:17:53.519Z,99707.20
2019-02-07T09:20:38.773Z,99709.39
2019-02-07T09:23:34.436Z,99716.34
2019-02-07T09:26:24.509Z,99703.19
2019-02-07T09:29:10.022Z,99701.58
2019-02-07T09:31:58.741Z,99710.30
2019-02-07T09:34:54.358Z,99699.80
2019-02-07T09:37:44.475Z,99708.81
2019-02-07T09:40:33.033Z,99700.05
2019-02-07T09:43:26.228Z,99693.74
2019-02-07T09:46:24.114Z,99705.94
2019-02-07T09:49:17.670Z,99711.15
2019-02-07T09:52:10.540Z,99702.66
2019-02-07T09:55:12.286Z,99717.89
2019-02-07T09:58:08.025Z,99711.62
2019-02-07T10:00:58.092Z,99705.85
2019-02-07T10:03:54.437Z,99716.52
2019-02-07T10:06:34.356Z,99718.33
2019-02-07T10:09:28.061Z,99738.30
2019-02-07T10:12:16.741Z,99731.95
2019-02-07T10:15:02.880Z,99725.73
2019-02-07T10:17:45.904Z,99719.85
2019-02-07T10:20:37.206Z,99716.91
2019-02-07T10:23:25.794Z,99717.42
2019-02-07T10:26:20.366Z,99705.66
2019-02-07T10:29:11.526Z,99709.20
2019-02-07T10:32:03.619Z,99709.80
2019-02-07T10:34:52.778Z,99705.56
2019-02-07T10:37:51.607Z,99711.06
2019-02-07T10:40:50.434Z,99697.75
2019-02-07T10:43:41.099Z,99707.36
2019-02-07T10:46:30.579Z,99692.12
2019-02-07T10:49:10.996Z,99699.84
2019-02-07T10:52:01.800Z,99696.02
2019-02-07T10:54:57.520Z,99693.44
2019-02-07T10:57:39.355Z,99697.00
2019-02-07T11:00:33.420Z,99691.56
2019-02-07T11:03:14.985Z,99692.17
2019-02-07T11:06:07.552Z,99693.00
2019-02-07T11:08:51.304Z,99690.12
2019-02-07T11:11:47.339Z,99681.59
2019-02-07T11:14:39.852Z,99679.33
2019-02-07T11:17:36.336Z,99687.43
2019-02-07T11:20:34.023Z,99691.94
2019-02-07T11:23:14.778Z,99682.95
2019-02-07T11:26:04.753Z,99681.05
2019-02-07T11:28:43.468Z,99680.84
2019-02-07T11:31:52.063Z,99680.52
2019-02-07T11:34:37.252Z,99658.59
2019-02-07T11:37:30.101Z,99673.77
2019-02-07T11:40:25.952Z,99658.39
2019-02-07T11:43:23.299Z,99654.44
2019-02-07T11:46:37.465Z,99656.45
2019-02-07T11:49:21.682Z,99658.92
2019-02-07T11:52:10.559Z,99651.70
2019-02-07T11:54:48.872Z,99649.59
2019-02-07T11:57:40.661Z,99645.17
2019-02-07T12:00:32.972Z,99646.78
2019-02-07T12:03:13.754Z,99648.47
2019-02-07T12:06:02.385Z,99646.16
2019-02-07T12:08:50.768Z,99648.41
2019-02-07T12:11:48.691Z,99628.30
2019-02-07T12:14:37.002Z,99630.56
2019-02-07T12:17:25.686Z,99640.56
2019-02-07T12:20:14.295Z,99634.23
2019-02-07T12:23:20.096Z,99622.36
2019-02-07T12:26:09.932Z,99620.28
2019-02-07T12:28:58.565Z,99610.83
2019-02-07T12:31:48.120Z,99605.92
2019-02-07T12:34:44.156Z,99611.00
2019-02-07T12:37:30.173Z,99614.06
2019-02-07T12:40:38.241Z,99612.60
2019-02-07T12:43:37.362Z,99618.31
2019-02-07T12:46:31.248Z,99613.68
2019-02-07T12:49:33.506Z,99624.44
2019-02-07T12:52:23.498Z,99614.23
2019-02-07T12:55:12.208Z,99609.26
2019-02-07T12:58:08.055Z,99602.09
2019-02-07T13:00:57.339Z,99595.70
2019-02-07T13:03:56.196Z,99603.02
2019-02-07T13:06:47.195Z,99607.80
2019-02-07T13:09:40.497Z,99608.59
2019-02-07T13:12:21.434Z,99611.83
2019-02-07T13:15:10.068Z,99615.59
2019-02-07T13:18:10.191Z,99614.30
2019-02-07T13:21:06.823Z,99617.44
2019-02-07T13:23:59.346Z,99614.97
2019-02-07T13:26:36.292Z,99613.05
2019-02-07T13:29:29.314Z,99605.04
2019-02-07T13:32:31.261Z,99611.17
2019-02-07T13:35:29.737Z,99609.44
2019-02-07T13:38:19.651Z,99621.09
2019-02-07T13:41:00.662Z,99619.27
2019-02-07T13:44:09.255Z,99620.81
2019-02-07T13:47:03.159Z,99620.00
2019-02-07T13:49:51.723Z,99626.63
2019-02-07T13:52:36.448Z,99627.77
2019-02-07T13:55:44.559Z,99623.72
2019-02-07T13:58:34.564Z,99627.59
2019-02-07T14:01:21.553Z,99623.90
2019-02-07T14:04:13.790Z,99603.47
2019-02-07T14:07:05.014Z,99605.68
2019-02-07T14:09:53.201Z,99598.70
2019-02-07T14:12:33.533Z,99577.72
2019-02-07T14:15:17.583Z,99574.77
2019-02-07T14:18:06.921Z,99589.98
2019-02-07T14:20:55.451Z,99599.28
2019-02-07T14:23:35.185Z,99615.68
2019-02-07T14:26:27.789Z,99636.23
2019-02-07T14:29:25.684Z,99635.77
2019-02-07T14:32:14.370Z,99634.97
2019-02-07T14:34:55.570Z,99650.91
2019-02-07T14:37:45.413Z,99639.66
2019-02-07T14:40:23.551Z,99642.16
2019-02-07T14:43:16.560Z,99645.47
2019-02-07T14:46:24.352Z,99655.24
2019-02-07T14:48:55.571Z,99655.72
2019-02-07T14:51:26.400Z,99663.92
2019-02-07T14:54:00.688Z,99673.02
2019-02-07T14:56:30.732Z,99666.03
2019-02-07T14:59:01.934Z,99663.80
2019-02-07T15:01:33.759Z,99663.32
2019-02-07T15:04:05.235Z,99666.09
2019-02-07T15:06:36.372Z,99663.70
2019-02-07T15:09:18.420Z,99659.00
2019-02-07T15:11:49.365Z,99668.60
2019-02-07T15:14:20.292Z,99647.59
2019-02-07T15:16:51.115Z,99644.81
2019-02-07T15:19:22.042Z,99659.58
2019-02-07T15:21:53.466Z,99652.92
2019-02-07T15:24:24.280Z,99658.16
2019-02-07T15:26:55.048Z,99667.31
2019-02-07T15:29:25.886Z,99662.71
2019-02-07T15:31:56.896Z,99659.11
2019-02-07T15:34:27.663Z,99657.35
2019-02-07T15:36:58.641Z,99656.65
2019-02-07T15:39:29.825Z,99672.94
2019-02-07T15:42:01.226Z,99670.16
2019-02-07T15:44:32.093Z,99664.19
2019-02-07T15:47:04.383Z,99672.67
2019-02-07T15:49:35.280Z,99676.45
2019-02-07T15:52:06.514Z,99673.30
2019-02-07T15:54:39.497Z,99675.52
2019-02-07T15:57:11.612Z,99667.98
2019-02-07T15:59:58.106Z,99674.32
2019-02-07T16:02:33.920Z,99675.70
2019-02-07T16:05:08.058Z,99678.58
2019-02-07T16:07:39.718Z,99680.80
2019-02-07T16:10:13.321Z,99676.73
2019-02-07T16:12:44.173Z,99681.72
2019-02-07T16:15:15.403Z,99678.69
2019-02-07T16:17:46.239Z,99685.41
2019-02-07T16:20:18.391Z,99686.70
2019-02-07T16:23:01.815Z,99691.86
2019-02-07T16:25:33.602Z,99693.98
2019-02-07T16:28:04.957Z,99695.34
2019-02-07T16:30:35.881Z,99695.91
2019-02-07T16:33:07.194Z,99698.11
2019-02-07T16:35:38.350Z,99699.29
2019-02-07T16:38:09.468Z,99699.30
2019-02-07T16:40:40.246Z,99700.77
2019-02-07T16:43:11.001Z,99701.05
2019-02-07T16:45:42.298Z,99691.73
2019-02-07T16:48:13.480Z,99701.21
2019-02-07T16:50:45.502Z,99705.27
2019-02-07T16:53:16.731Z,99701.39
2019-02-07T16:55:47.575Z,99717.16
2019-02-07T16:58:18.361Z,99715.59
2019-02-07T17:00:49.136Z,99719.09
2019-02-07T17:03:20.314Z,99726.47
2019-02-07T17:05:51.412Z,99734.23
2019-02-07T17:08:22.474Z,99743.20
2019-02-07T17:10:53.432Z,99746.43
2019-02-07T17:13:24.417Z,99755.94
2019-02-07T17:15:55.763Z,99758.80
2019-02-07T17:18:26.835Z,99753.99
2019-02-07T17:20:57.697Z,99755.43
2019-02-07T17:23:28.779Z,99756.94
2019-02-07T17:25:59.974Z,99753.81
2019-02-07T17:28:31.116Z,99760.66
2019-02-07T17:31:02.910Z,99761.55
2019-02-07T17:33:34.003Z,99763.95
2019-02-07T17:36:05.273Z,99762.63
2019-02-07T17:38:36.817Z,99768.48
2019-02-07T17:41:07.810Z,99759.81
2019-02-07T17:43:39.635Z,99766.36
2019-02-07T17:46:10.477Z,99768.45
2019-02-07T17:48:41.307Z,99762.74
2019-02-07T17:51:22.648Z,99758.04
2019-02-07T17:53:44.699Z,99752.02
2019-02-07T17:56:15.791Z,99768.43
2019-02-07T17:58:46.749Z,99765.78
2019-02-07T18:01:17.593Z,99760.48
2019-02-07T18:03:48.496Z,99759.95
2019-02-07T18:06:19.442Z,99754.80
2019-02-07T18:08:50.517Z,99748.77
2019-02-07T18:11:21.366Z,99749.93
2019-02-07T18:13:52.192Z,99746.93
2019-02-07T18:16:23.343Z,99758.05
2019-02-07T18:18:54.385Z,99756.55
2019-02-07T18:21:33.897Z,99758.02
2019-02-07T18:23:57.646Z,99761.01
2019-02-07T18:26:28.598Z,99757.31
2019-02-07T18:28:59.713Z,99758.98
2019-02-07T18:31:30.582Z,99757.55
2019-02-07T18:34:01.704Z,99760.37
2019-02-07T18:36:32.940Z,99761.07
2019-02-07T18:39:05.947Z,99764.77
2019-02-07T18:41:38.919Z,99756.72
2019-02-07T18:44:09.999Z,99750.91
2019-02-07T18:46:41.505Z,99764.56
2019-02-07T18:49:12.553Z,99765.22
2019-02-07T18:51:45.747Z,99768.73
2019-02-07T18:54:16.616Z,99781.85
2019-02-07T18:56:47.687Z,99779.58
2019-02-07T18:59:18.695Z,99784.84
2019-02-07T19:01:49.788Z,99779.55
2019-02-07T19:04:21.024Z,99786.10
2019-02-07T19:06:52.042Z,99783.52
2019-02-07T19:09:22.807Z,99787.04
2019-02-07T19:11:54.797Z,99789.34
2019-02-07T19:14:25.830Z,99793.77
2019-02-07T19:16:56.709Z,99796.20
2019-02-07T19:19:27.946Z,99800.73
2019-02-07T19:21:59.028Z,99816.70
2019-02-07T19:24:30.093Z,99811.20
2019-02-07T19:27:01.266Z,99811.86
2019-02-07T19:29:32.248Z,99807.95
2019-02-07T19:32:03.055Z,99804.45
2019-02-07T19:34:34.130Z,99818.83
2019-02-07T19:37:05.036Z,99811.87
2019-02-07T19:39:36.199Z,99820.52
2019-02-07T19:42:07.379Z,99819.41
2019-02-07T19:44:38.295Z,99825.69
2019-02-07T19:47:09.422Z,99810.66
2019-02-07T19:49:40.480Z,99822.77
2019-02-07T19:52:11.930Z,99816.45
2019-02-07T19:54:43.067Z,99814.25
2019-02-07T19:57:14.336Z,99816.27
2019-02-07T19:59:45.548Z,99824.34
2019-02-07T20:02:16.427Z,99821.45
2019-02-07T20:04:47.724Z,99833.02
2019-02-07T20:07:18.677Z,99831.14
2019-02-07T20:09:49.606Z,99834.03
2019-02-07T20:12:21.022Z,99831.00
2019-02-07T20:14:52.189Z,99837.03
2019-02-07T20:17:23.107Z,99844.91
2019-02-07T20:19:54.412Z,99849.36
2019-02-07T20:22:25.556Z,99848.56
2019-02-07T20:24:56.631Z,99851.80
2019-02-07T20:27:28.560Z,99856.48
2019-02-07T20:29:59.292Z,99841.45
2019-02-07T20:32:30.439Z,99836.81
2019-02-07T20:35:01.927Z,99840.27
2019-02-07T20:37:32.868Z,99846.71
2019-02-07T20:40:04.343Z,99846.16
2019-02-07T20:42:35.647Z,99849.61
2019-02-07T20:45:08.314Z,99835.88
2019-02-07T20:47:39.739Z,99842.95
2019-02-07T20:50:13.228Z,99852.09
2019-02-07T20:52:44.412Z,99835.32
2019-02-07T20:55:15.368Z,99841.01
2019-02-07T20:57:46.382Z,99844.98
2019-02-07T21:00:25.689Z,99851.67
2019-02-07T21:02:56.772Z,99854.36
2019-02-07T21:05:28.596Z,99851.44
2019-02-07T21:08:00.607Z,99856.38
2019-02-07T21:10:32.419Z,99861.89
2019-02-07T21:13:03.294Z,99859.55
2019-02-07T21:15:34.223Z,99853.24
2019-02-07T21:18:05.438Z,99851.61
2019-02-07T21:20:36.786Z,99856.03
2019-02-07T21:23:08.009Z,99860.53
2019-02-07T21:25:50.448Z,99862.83
2019-02-07T21:28:21.559Z,99864.72
2019-02-07T21:30:52.542Z,99870.78
2019-02-07T21:33:23.339Z,99862.80
2019-02-07T21:35:54.728Z,99867.95
2019-02-07T21:38:25.854Z,99871.64
2019-02-07T21:40:57.106Z,99884.05
2019-02-07T21:43:27.947Z,99889.92
2019-02-07T21:45:58.778Z,99901.36
2019-02-07T21:48:29.786Z,99901.49
2019-02-07T21:51:00.683Z,99899.51
2019-02-07T21:53:32.003Z,99909.66
2019-02-07T21:56:02.891Z,99911.34
2019-02-07T21:58:34.293Z,99909.64
2019-02-07T22:01:05.700Z,99919.68
2019-02-07T22:03:36.539Z,99910.81
2019-02-07T22:06:07.780Z,99916.92
2019-02-07T22:08:39.530Z,99917.31
2019-02-07T22:11:10.360Z,99916.79
2019-02-07T22:13:41.548Z,99918.00
2019-02-07T22:16:12.377Z,99915.53
2019-02-07T22:18:43.372Z,99921.70
2019-02-07T22:21:14.768Z,99921.19
2019-02-07T22:23:45.762Z,99930.22
2019-02-07T22:26:16.822Z,99926.52
2019-02-07T22:28:47.887Z,99921.95
2019-02-07T22:31:19.001Z,99934.44
2019-02-07T22:33:49.878Z,99939.25
2019-02-07T22:36:20.934Z,99940.86
2019-02-07T22:38:51.966Z,99939.11
2019-02-07T22:41:22.718Z,99947.21
2019-02-07T22:43:53.563Z,99937.83
2019-02-07T22:46:24.310Z,99929.52
2019-02-07T22:48:55.422Z,99931.55
2019-02-07T22:51:26.249Z,99928.79
2019-02-07T22:53:57.628Z,99931.06
2019-02-07T22:56:28.761Z,99928.37
2019-02-07T22:58:59.758Z,99934.69
2019-02-07T23:01:42.555Z,99933.19
2019-02-07T23:04:13.705Z,99931.33
2019-02-07T23:06:44.811Z,99934.20
2019-02-07T23:09:18.119Z,99937.16
2019-02-07T23:11:49.188Z,99943.17
2019-02-07T23:14:20.458Z,99941.31
2019-02-07T23:16:51.222Z,99950.09
2019-02-07T23:19:22.289Z,99952.72
2019-02-07T23:21:53.692Z,99951.08
2019-02-07T23:24:24.563Z,99948.80
2019-02-07T23:26:55.522Z,99954.01
2019-02-07T23:29:26.613Z,99958.89
2019-02-07T23:31:57.371Z,99960.20
2019-02-07T23:34:28.387Z,99957.34
2019-02-07T23:36:59.491Z,99964.29
2019-02-07T23:39:30.534Z,99968.50
2019-02-07T23:42:01.596Z,99969.95
2019-02-07T23:44:32.347Z,99969.73
2019-02-07T23:47:03.163Z,99969.69
2019-02-07T23:49:33.941Z,99972.70
2019-02-07T23:52:04.894Z,99971.13
2019-02-07T23:54:36.246Z,99976.91
2019-02-07T23:57:07.068Z,99977.43
2019-02-07T23:59:38.084Z,99985.67
